Ana Sayfa
METAR-TAF:

METAR-TAF

Havaalanları :

Comanche County-City Airport

Comanche, Teksas, Amerika Birleşik Devletleri

Enlem: 31-55N, Boylam: 098-36-01W, yükseklik: 423 m

Güncel hava durumu gözlemi

Rapor saat 00:55 UTC de 19 dakika önce yapıldı.
Rüzgar güney/güneydoğudan 11 kt ve 16 kt'a kadar ani rüzgarlar
Sıcaklık 27°C
Nem 70%
Basınç 1014 hPa
Görüş mesafesi: 16.1 km
Açık gökyüzü

METAR: KMKN 260055Z AUTO 16011G16KT 10SM CLR 27/21 A2994 RMK AO2 T02720207

Saat: 20:14 (01:14 UTC)


TAF: eksik

4.000'den fazla havaalanı için hava durumu gözlemleri ve tahminleri (METAR ve TAF raporları).

Kullanılabilir istasyonlar harita üzerinde sarı ve kırmızı noktalarla gösterilir.

İstasyonun adını görmek için fareyi noktanın üzerinde gezdirin.

Sonrasında hava gözlem ve tahminlerini görmek için tıklayın.

Haritayı değiştirmek için: yaklaştırmak için siyah artı işaretli yeşil düğmeye ve uzaklaştırmak için de eksi işaretli düğmeye hızla tıklayın; bitişik haritalar için yeşil okları kullanın.


METAR-TAF: